sensor_id;sensor_type;location;lat;lon;timestamp;pressure;altitude;pressure_sealevel;temperature;humidity
11099;BME280;12223;42.650;23.364;2023-12-22T00:01:33;93258.47;;;5.17;65.84
11099;BME280;12223;42.650;23.364;2023-12-22T00:04:01;93225.50;;;5.92;62.93
11099;BME280;12223;42.650;23.364;2023-12-22T00:06:29;93232.53;;;6.15;61.45
11099;BME280;12223;42.650;23.364;2023-12-22T00:08:55;93232.88;;;6.19;61.78
11099;BME280;12223;42.650;23.364;2023-12-22T00:11:22;93229.72;;;6.57;61.37
11099;BME280;12223;42.650;23.364;2023-12-22T00:13:49;93224.22;;;6.70;60.62
11099;BME280;12223;42.650;23.364;2023-12-22T00:16:16;93231.06;;;6.59;59.97
11099;BME280;12223;42.650;23.364;2023-12-22T00:18:42;93236.31;;;6.19;61.33
11099;BME280;12223;42.650;23.364;2023-12-22T00:21:09;93207.84;;;6.51;60.92
11099;BME280;12223;42.650;23.364;2023-12-22T00:23:38;93208.13;;;6.66;60.15
11099;BME280;12223;42.650;23.364;2023-12-22T00:26:05;93194.00;;;6.67;60.25
11099;BME280;12223;42.650;23.364;2023-12-22T00:28:32;93197.31;;;6.91;59.21
11099;BME280;12223;42.650;23.364;2023-12-22T00:30:58;93208.63;;;6.92;59.43
11099;BME280;12223;42.650;23.364;2023-12-22T00:33:25;93192.69;;;6.81;59.10
11099;BME280;12223;42.650;23.364;2023-12-22T00:35:52;93200.94;;;6.33;61.41
11099;BME280;12223;42.650;23.364;2023-12-22T00:38:19;93185.38;;;6.03;64.09
11099;BME280;12223;42.650;23.364;2023-12-22T00:40:47;93193.25;;;6.55;62.62
11099;BME280;12223;42.650;23.364;2023-12-22T00:43:14;93169.91;;;6.70;60.46
11099;BME280;12223;42.650;23.364;2023-12-22T00:45:40;93174.72;;;6.90;60.09
11099;BME280;12223;42.650;23.364;2023-12-22T00:48:07;93172.94;;;7.07;58.80
11099;BME280;12223;42.650;23.364;2023-12-22T00:50:34;93171.97;;;6.97;59.49
11099;BME280;12223;42.650;23.364;2023-12-22T00:53:01;93160.94;;;7.28;58.45
11099;BME280;12223;42.650;23.364;2023-12-22T00:55:27;93163.53;;;6.95;58.72
11099;BME280;12223;42.650;23.364;2023-12-22T00:57:55;93164.09;;;6.40;61.66
11099;BME280;12223;42.650;23.364;2023-12-22T01:00:22;93159.78;;;6.91;60.44
11099;BME280;12223;42.650;23.364;2023-12-22T01:02:49;93137.38;;;7.16;58.51
11099;BME280;12223;42.650;23.364;2023-12-22T01:05:16;93143.00;;;6.07;61.69
11099;BME280;12223;42.650;23.364;2023-12-22T01:07:42;93140.63;;;5.23;67.98
11099;BME280;12223;42.650;23.364;2023-12-22T01:10:10;93172.38;;;5.39;69.52
11099;BME280;12223;42.650;23.364;2023-12-22T01:12:37;93175.16;;;6.42;66.02
11099;BME280;12223;42.650;23.364;2023-12-22T01:15:06;93168.56;;;7.13;62.63
11099;BME280;12223;42.650;23.364;2023-12-22T01:17:33;93178.06;;;7.64;60.36
11099;BME280;12223;42.650;23.364;2023-12-22T01:20:00;93170.81;;;7.71;59.12
11099;BME280;12223;42.650;23.364;2023-12-22T01:22:27;93161.88;;;7.89;58.70
11099;BME280;12223;42.650;23.364;2023-12-22T01:24:56;93168.97;;;7.72;58.10
11099;BME280;12223;42.650;23.364;2023-12-22T01:27:23;93155.78;;;8.05;57.33
11099;BME280;12223;42.650;23.364;2023-12-22T01:29:49;93161.88;;;7.89;57.64
11099;BME280;12223;42.650;23.364;2023-12-22T01:32:18;93142.16;;;8.08;57.50
11099;BME280;12223;42.650;23.364;2023-12-22T01:34:44;93165.31;;;8.11;57.05
11099;BME280;12223;42.650;23.364;2023-12-22T01:37:11;93170.56;;;8.11;56.42
11099;BME280;12223;42.650;23.364;2023-12-22T01:39:38;93151.78;;;7.64;57.51
11099;BME280;12223;42.650;23.364;2023-12-22T01:42:05;93154.44;;;7.14;59.74
11099;BME280;12223;42.650;23.364;2023-12-22T01:44:31;93137.84;;;7.47;59.46
11099;BME280;12223;42.650;23.364;2023-12-22T01:46:58;93128.91;;;7.26;59.85
11099;BME280;12223;42.650;23.364;2023-12-22T01:49:28;93133.25;;;7.37;60.40
11099;BME280;12223;42.650;23.364;2023-12-22T01:51:55;93129.47;;;6.83;61.96
11099;BME280;12223;42.650;23.364;2023-12-22T01:54:22;93110.88;;;6.84;61.97
11099;BME280;12223;42.650;23.364;2023-12-22T01:56:49;93120.50;;;6.79;63.01
11099;BME280;12223;42.650;23.364;2023-12-22T01:59:15;93115.34;;;7.17;61.28
11099;BME280;12223;42.650;23.364;2023-12-22T02:01:43;93105.91;;;7.00;61.86
11099;BME280;12223;42.650;23.364;2023-12-22T02:04:11;93107.22;;;7.02;61.67
11099;BME280;12223;42.650;23.364;2023-12-22T02:06:40;93110.59;;;7.31;60.75
11099;BME280;12223;42.650;23.364;2023-12-22T02:09:08;93100.63;;;7.50;59.80
11099;BME280;12223;42.650;23.364;2023-12-22T02:11:34;93108.09;;;6.74;62.74
11099;BME280;12223;42.650;23.364;2023-12-22T02:14:01;93117.97;;;7.34;59.79
11099;BME280;12223;42.650;23.364;2023-12-22T02:16:34;93115.88;;;7.70;59.47
11099;BME280;12223;42.650;23.364;2023-12-22T02:19:20;93107.22;;;7.91;57.21
11099;BME280;12223;42.650;23.364;2023-12-22T02:22:03;93109.38;;;7.55;58.17
11099;BME280;12223;42.650;23.364;2023-12-22T02:24:31;93093.19;;;8.02;57.42
11099;BME280;12223;42.650;23.364;2023-12-22T02:27:03;93124.97;;;7.28;59.41
11099;BME280;12223;42.650;23.364;2023-12-22T02:29:32;93106.69;;;7.89;57.85
11099;BME280;12223;42.650;23.364;2023-12-22T02:32:06;93115.50;;;8.21;56.56
11099;BME280;12223;42.650;23.364;2023-12-22T02:34:36;93111.81;;;8.22;56.79
11099;BME280;12223;42.650;23.364;2023-12-22T02:37:05;93110.00;;;8.44;55.95
11099;BME280;12223;42.650;23.364;2023-12-22T02:39:35;93099.16;;;8.63;54.08
11099;BME280;12223;42.650;23.364;2023-12-22T02:42:03;93100.22;;;8.67;54.78
11099;BME280;12223;42.650;23.364;2023-12-22T02:44:31;93081.28;;;8.65;54.84
11099;BME280;12223;42.650;23.364;2023-12-22T02:46:58;93085.94;;;8.84;53.58
11099;BME280;12223;42.650;23.364;2023-12-22T02:49:25;93089.16;;;8.92;53.32
11099;BME280;12223;42.650;23.364;2023-12-22T02:51:51;93091.13;;;9.06;53.08
11099;BME280;12223;42.650;23.364;2023-12-22T02:54:18;93080.13;;;8.82;53.69
11099;BME280;12223;42.650;23.364;2023-12-22T02:56:47;93062.06;;;8.91;53.38
11099;BME280;12223;42.650;23.364;2023-12-22T02:59:14;93070.19;;;8.90;53.14
11099;BME280;12223;42.650;23.364;2023-12-22T03:01:40;93061.03;;;8.65;54.03
11099;BME280;12223;42.650;23.364;2023-12-22T03:04:07;93065.09;;;8.29;56.03
11099;BME280;12223;42.650;23.364;2023-12-22T03:06:34;93071.78;;;8.37;55.63
11099;BME280;12223;42.650;23.364;2023-12-22T03:09:01;93055.13;;;8.53;55.37
11099;BME280;12223;42.650;23.364;2023-12-22T03:11:28;93052.81;;;8.13;54.97
11099;BME280;12223;42.650;23.364;2023-12-22T03:13:56;93057.88;;;7.54;57.78
11099;BME280;12223;42.650;23.364;2023-12-22T03:16:23;93068.81;;;6.96;60.21
11099;BME280;12223;42.650;23.364;2023-12-22T03:18:49;93069.25;;;6.43;63.94
11099;BME280;12223;42.650;23.364;2023-12-22T03:21:17;93079.47;;;7.23;61.75
11099;BME280;12223;42.650;23.364;2023-12-22T03:23:45;93064.13;;;7.32;60.13
11099;BME280;12223;42.650;23.364;2023-12-22T03:26:11;93077.41;;;6.92;62.86
11099;BME280;12223;42.650;23.364;2023-12-22T03:28:38;93074.66;;;7.53;60.64
11099;BME280;12223;42.650;23.364;2023-12-22T03:31:07;93078.38;;;7.96;58.54
11099;BME280;12223;42.650;23.364;2023-12-22T03:33:34;93078.97;;;8.03;58.06
11099;BME280;12223;42.650;23.364;2023-12-22T03:36:01;93078.59;;;8.16;57.55
11099;BME280;12223;42.650;23.364;2023-12-22T03:38:28;93084.19;;;7.59;59.19
11099;BME280;12223;42.650;23.364;2023-12-22T03:40:55;93073.84;;;8.13;57.87
11099;BME280;12223;42.650;23.364;2023-12-22T03:43:21;93073.13;;;8.39;57.07
11099;BME280;12223;42.650;23.364;2023-12-22T03:45:48;93058.56;;;8.32;57.56
11099;BME280;12223;42.650;23.364;2023-12-22T03:48:16;93060.31;;;8.48;57.52
11099;BME280;12223;42.650;23.364;2023-12-22T03:50:43;93065.28;;;8.44;57.06
11099;BME280;12223;42.650;23.364;2023-12-22T03:53:10;93071.22;;;8.35;58.04
11099;BME280;12223;42.650;23.364;2023-12-22T03:55:36;93065.66;;;8.53;56.47
11099;BME280;12223;42.650;23.364;2023-12-22T03:58:03;93061.72;;;8.82;56.23
11099;BME280;12223;42.650;23.364;2023-12-22T04:00:32;93070.94;;;8.85;55.49
11099;BME280;12223;42.650;23.364;2023-12-22T04:02:59;93069.44;;;8.94;54.87
11099;BME280;12223;42.650;23.364;2023-12-22T04:05:28;93064.38;;;9.19;54.65
11099;BME280;12223;42.650;23.364;2023-12-22T04:07:55;93057.75;;;9.17;54.23
11099;BME280;12223;42.650;23.364;2023-12-22T04:10:22;93064.97;;;9.26;53.97
11099;BME280;12223;42.650;23.364;2023-12-22T04:12:48;93066.56;;;9.33;54.08
11099;BME280;12223;42.650;23.364;2023-12-22T04:15:15;93065.09;;;9.47;54.30
11099;BME280;12223;42.650;23.364;2023-12-22T04:17:42;93062.50;;;9.57;53.56
11099;BME280;12223;42.650;23.364;2023-12-22T04:20:09;93060.66;;;9.52;53.71
11099;BME280;12223;42.650;23.364;2023-12-22T04:22:37;93066.50;;;9.59;53.28
11099;BME280;12223;42.650;23.364;2023-12-22T04:25:04;93053.34;;;9.64;53.35
11099;BME280;12223;42.650;23.364;2023-12-22T04:27:33;93054.94;;;9.65;52.88
11099;BME280;12223;42.650;23.364;2023-12-22T04:29:59;93043.13;;;9.73;52.64
11099;BME280;12223;42.650;23.364;2023-12-22T04:32:26;93052.19;;;9.50;53.38
11099;BME280;12223;42.650;23.364;2023-12-22T04:34:53;93045.94;;;9.61;53.50
11099;BME280;12223;42.650;23.364;2023-12-22T04:37:20;93053.00;;;9.51;53.43
11099;BME280;12223;42.650;23.364;2023-12-22T04:39:48;93050.97;;;9.63;53.54
11099;BME280;12223;42.650;23.364;2023-12-22T04:42:15;93052.09;;;9.77;53.21
11099;BME280;12223;42.650;23.364;2023-12-22T04:44:41;93045.06;;;9.46;53.70
11099;BME280;12223;42.650;23.364;2023-12-22T04:47:08;93040.31;;;9.06;54.78
11099;BME280;12223;42.650;23.364;2023-12-22T04:49:35;93038.38;;;9.28;54.57
11099;BME280;12223;42.650;23.364;2023-12-22T04:52:02;93035.66;;;9.18;54.42
11099;BME280;12223;42.650;23.364;2023-12-22T04:54:29;93033.38;;;9.32;53.93
11099;BME280;12223;42.650;23.364;2023-12-22T04:56:57;93041.75;;;9.23;54.10
11099;BME280;12223;42.650;23.364;2023-12-22T04:59:24;93034.53;;;9.09;54.57
11099;BME280;12223;42.650;23.364;2023-12-22T05:01:51;93042.22;;;9.52;53.14
11099;BME280;12223;42.650;23.364;2023-12-22T05:04:18;93026.78;;;9.29;54.17
11099;BME280;12223;42.650;23.364;2023-12-22T05:06:44;93035.97;;;9.21;54.21
11099;BME280;12223;42.650;23.364;2023-12-22T05:09:11;93022.19;;;9.09;54.85
11099;BME280;12223;42.650;23.364;2023-12-22T05:11:39;93020.78;;;8.38;58.01
11099;BME280;12223;42.650;23.364;2023-12-22T05:14:07;93023.59;;;8.58;57.38
11099;BME280;12223;42.650;23.364;2023-12-22T05:16:34;93031.47;;;8.85;55.97
11099;BME280;12223;42.650;23.364;2023-12-22T05:19:01;93016.22;;;8.92;55.97
11099;BME280;12223;42.650;23.364;2023-12-22T05:21:27;93023.34;;;8.60;57.59
11099;BME280;12223;42.650;23.364;2023-12-22T05:23:55;93023.06;;;8.88;56.06
11099;BME280;12223;42.650;23.364;2023-12-22T05:26:22;93004.22;;;9.01;55.53
11099;BME280;12223;42.650;23.364;2023-12-22T05:28:49;93023.28;;;9.18;55.77
11099;BME280;12223;42.650;23.364;2023-12-22T05:31:17;93022.66;;;9.06;55.53
11099;BME280;12223;42.650;23.364;2023-12-22T05:33:44;93026.16;;;9.17;55.47
11099;BME280;12223;42.650;23.364;2023-12-22T05:36:11;93040.09;;;9.12;55.09
11099;BME280;12223;42.650;23.364;2023-12-22T05:38:38;93035.38;;;9.14;55.27
11099;BME280;12223;42.650;23.364;2023-12-22T05:41:05;93029.69;;;9.27;55.48
11099;BME280;12223;42.650;23.364;2023-12-22T05:43:32;93045.06;;;7.58;61.18
11099;BME280;12223;42.650;23.364;2023-12-22T05:45:58;93010.28;;;7.73;62.02
11099;BME280;12223;42.650;23.364;2023-12-22T05:48:27;93044.75;;;7.98;61.80
11099;BME280;12223;42.650;23.364;2023-12-22T05:50:55;93039.53;;;8.25;60.29
11099;BME280;12223;42.650;23.364;2023-12-22T05:53:22;93024.13;;;8.60;59.74
11099;BME280;12223;42.650;23.364;2023-12-22T05:55:49;93030.28;;;8.71;60.16
11099;BME280;12223;42.650;23.364;2023-12-22T05:58:16;93022.22;;;8.82;59.72
11099;BME280;12223;42.650;23.364;2023-12-22T06:00:43;93029.97;;;8.99;57.15
11099;BME280;12223;42.650;23.364;2023-12-22T06:03:09;93022.31;;;8.34;60.13
11099;BME280;12223;42.650;23.364;2023-12-22T06:05:37;93027.69;;;8.76;59.14
11099;BME280;12223;42.650;23.364;2023-12-22T06:08:05;93022.03;;;8.89;58.74
11099;BME280;12223;42.650;23.364;2023-12-22T06:10:31;93027.31;;;8.94;58.07
11099;BME280;12223;42.650;23.364;2023-12-22T06:12:58;93031.59;;;9.05;57.46
11099;BME280;12223;42.650;23.364;2023-12-22T06:15:28;93040.50;;;8.99;58.00
11099;BME280;12223;42.650;23.364;2023-12-22T06:17:55;93038.19;;;9.03;58.07
11099;BME280;12223;42.650;23.364;2023-12-22T06:20:23;93035.94;;;8.84;59.51
11099;BME280;12223;42.650;23.364;2023-12-22T06:22:51;93038.16;;;8.66;61.44
11099;BME280;12223;42.650;23.364;2023-12-22T06:25:18;93037.72;;;8.47;62.92
11099;BME280;12223;42.650;23.364;2023-12-22T06:27:45;93046.06;;;8.71;61.51
11099;BME280;12223;42.650;23.364;2023-12-22T06:30:13;93048.31;;;9.21;61.19
11099;BME280;12223;42.650;23.364;2023-12-22T06:32:39;93041.69;;;9.13;60.30
11099;BME280;12223;42.650;23.364;2023-12-22T06:35:07;93046.47;;;9.16;61.00
11099;BME280;12223;42.650;23.364;2023-12-22T06:37:36;93054.00;;;9.45;60.48
11099;BME280;12223;42.650;23.364;2023-12-22T06:40:05;93047.63;;;9.78;59.09
11099;BME280;12223;42.650;23.364;2023-12-22T06:42:32;93035.25;;;9.83;58.76
11099;BME280;12223;42.650;23.364;2023-12-22T06:44:58;93042.47;;;10.03;57.24
11099;BME280;12223;42.650;23.364;2023-12-22T06:47:25;93047.94;;;9.86;57.56
11099;BME280;12223;42.650;23.364;2023-12-22T06:49:52;93057.00;;;10.11;57.58
11099;BME280;12223;42.650;23.364;2023-12-22T06:52:19;93042.78;;;10.12;56.66
11099;BME280;12223;42.650;23.364;2023-12-22T06:54:46;93045.97;;;10.19;56.50
11099;BME280;12223;42.650;23.364;2023-12-22T06:57:14;93051.91;;;9.94;57.67
11099;BME280;12223;42.650;23.364;2023-12-22T06:59:42;93047.63;;;9.83;58.09
11099;BME280;12223;42.650;23.364;2023-12-22T07:02:08;93047.88;;;9.81;58.30
11099;BME280;12223;42.650;23.364;2023-12-22T07:04:35;93047.97;;;9.96;57.60
11099;BME280;12223;42.650;23.364;2023-12-22T07:07:02;93052.56;;;9.69;58.98
11099;BME280;12223;42.650;23.364;2023-12-22T07:09:32;93046.81;;;9.72;60.33
11099;BME280;12223;42.650;23.364;2023-12-22T07:11:58;93057.63;;;9.76;59.60
11099;BME280;12223;42.650;23.364;2023-12-22T07:14:27;93058.84;;;10.10;58.70
11099;BME280;12223;42.650;23.364;2023-12-22T07:16:54;93041.91;;;10.01;58.23
11099;BME280;12223;42.650;23.364;2023-12-22T07:19:23;93055.72;;;10.18;58.43
11099;BME280;12223;42.650;23.364;2023-12-22T07:21:50;93064.13;;;10.15;58.51
11099;BME280;12223;42.650;23.364;2023-12-22T07:24:16;93067.78;;;9.99;59.07
11099;BME280;12223;42.650;23.364;2023-12-22T07:26:44;93061.72;;;10.08;59.07
11099;BME280;12223;42.650;23.364;2023-12-22T07:29:11;93069.41;;;10.15;59.11
11099;BME280;12223;42.650;23.364;2023-12-22T07:31:39;93059.94;;;10.19;58.84
11099;BME280;12223;42.650;23.364;2023-12-22T07:34:06;93067.19;;;10.54;57.77
11099;BME280;12223;42.650;23.364;2023-12-22T07:36:33;93072.78;;;10.73;57.01
11099;BME280;12223;42.650;23.364;2023-12-22T07:38:59;93064.63;;;10.84;56.49
11099;BME280;12223;42.650;23.364;2023-12-22T07:41:26;93068.25;;;10.58;57.52
11099;BME280;12223;42.650;23.364;2023-12-22T07:43:53;93067.94;;;10.34;58.28
11099;BME280;12223;42.650;23.364;2023-12-22T07:46:20;93072.75;;;10.58;58.06
11099;BME280;12223;42.650;23.364;2023-12-22T07:48:48;93082.31;;;10.84;57.02
11099;BME280;12223;42.650;23.364;2023-12-22T07:51:16;93089.19;;;10.95;56.66
11099;BME280;12223;42.650;23.364;2023-12-22T07:53:42;93091.31;;;11.08;56.23
11099;BME280;12223;42.650;23.364;2023-12-22T07:56:09;93088.44;;;11.30;54.82
11099;BME280;12223;42.650;23.364;2023-12-22T07:58:37;93101.88;;;11.08;55.54
11099;BME280;12223;42.650;23.364;2023-12-22T08:01:04;93093.44;;;11.16;55.87
11099;BME280;12223;42.650;23.364;2023-12-22T08:03:32;93106.91;;;11.30;56.01
11099;BME280;12223;42.650;23.364;2023-12-22T08:06:00;93105.31;;;11.39;55.42
11099;BME280;12223;42.650;23.364;2023-12-22T08:08:27;93103.72;;;11.38;55.53
11099;BME280;12223;42.650;23.364;2023-12-22T08:10:54;93114.59;;;11.42;55.50
11099;BME280;12223;42.650;23.364;2023-12-22T08:13:21;93113.78;;;11.21;56.21
11099;BME280;12223;42.650;23.364;2023-12-22T08:15:48;93118.81;;;11.22;57.51
11099;BME280;12223;42.650;23.364;2023-12-22T08:18:14;93123.31;;;11.37;56.25
11099;BME280;12223;42.650;23.364;2023-12-22T08:20:41;93127.28;;;11.50;56.33
11099;BME280;12223;42.650;23.364;2023-12-22T08:23:09;93116.94;;;11.28;56.69
11099;BME280;12223;42.650;23.364;2023-12-22T08:25:37;93131.50;;;11.31;56.36
11099;BME280;12223;42.650;23.364;2023-12-22T08:28:07;93135.72;;;10.34;58.98
11099;BME280;12223;42.650;23.364;2023-12-22T08:30:34;93134.50;;;9.62;65.19
11099;BME280;12223;42.650;23.364;2023-12-22T08:33:00;93133.59;;;10.31;63.54
11099;BME280;12223;42.650;23.364;2023-12-22T08:35:30;93131.59;;;10.58;61.84
11099;BME280;12223;42.650;23.364;2023-12-22T08:37:57;93132.16;;;10.65;61.76
11099;BME280;12223;42.650;23.364;2023-12-22T08:40:25;93135.03;;;10.54;62.96
11099;BME280;12223;42.650;23.364;2023-12-22T08:42:51;93130.09;;;10.77;61.84
11099;BME280;12223;42.650;23.364;2023-12-22T08:45:25;93133.53;;;10.83;61.02
11099;BME280;12223;42.650;23.364;2023-12-22T08:47:54;93126.94;;;10.96;61.63
11099;BME280;12223;42.650;23.364;2023-12-22T08:50:20;93126.47;;;11.19;60.63
11099;BME280;12223;42.650;23.364;2023-12-22T08:52:47;93124.09;;;11.38;59.70
11099;BME280;12223;42.650;23.364;2023-12-22T08:55:14;93130.16;;;11.38;60.44
11099;BME280;12223;42.650;23.364;2023-12-22T08:57:42;93112.47;;;11.59;59.08
11099;BME280;12223;42.650;23.364;2023-12-22T09:00:10;93130.72;;;11.55;59.01
11099;BME280;12223;42.650;23.364;2023-12-22T09:02:37;93123.84;;;11.75;58.27
11099;BME280;12223;42.650;23.364;2023-12-22T09:05:04;93152.94;;;11.80;58.46
11099;BME280;12223;42.650;23.364;2023-12-22T09:07:32;93141.81;;;11.88;57.62
11099;BME280;12223;42.650;23.364;2023-12-22T09:09:59;93154.25;;;11.77;57.69
11099;BME280;12223;42.650;23.364;2023-12-22T09:12:26;93142.34;;;11.69;58.34
11099;BME280;12223;42.650;23.364;2023-12-22T09:14:54;93152.38;;;11.73;58.01
11099;BME280;12223;42.650;23.364;2023-12-22T09:17:21;93155.56;;;11.49;59.45
11099;BME280;12223;42.650;23.364;2023-12-22T09:19:47;93159.25;;;11.53;60.91
11099;BME280;12223;42.650;23.364;2023-12-22T09:22:14;93161.91;;;11.68;59.32
11099;BME280;12223;42.650;23.364;2023-12-22T09:24:42;93157.94;;;11.66;59.28
11099;BME280;12223;42.650;23.364;2023-12-22T09:27:09;93161.38;;;11.61;60.04
11099;BME280;12223;42.650;23.364;2023-12-22T09:29:35;93165.88;;;11.66;62.23
11099;BME280;12223;42.650;23.364;2023-12-22T09:32:04;93166.16;;;11.85;62.31
11099;BME280;12223;42.650;23.364;2023-12-22T09:34:32;93155.28;;;11.71;62.14
11099;BME280;12223;42.650;23.364;2023-12-22T09:36:58;93159.53;;;11.67;62.93
11099;BME280;12223;42.650;23.364;2023-12-22T09:39:25;93150.00;;;11.51;63.96
11099;BME280;12223;42.650;23.364;2023-12-22T09:41:54;93150.00;;;11.46;64.54
11099;BME280;12223;42.650;23.364;2023-12-22T09:44:21;93146.81;;;11.59;65.05
11099;BME280;12223;42.650;23.364;2023-12-22T09:46:48;93138.91;;;11.84;64.27
11099;BME280;12223;42.650;23.364;2023-12-22T09:49:18;93141.78;;;12.13;63.42
11099;BME280;12223;42.650;23.364;2023-12-22T09:51:45;93133.78;;;12.28;63.08
11099;BME280;12223;42.650;23.364;2023-12-22T09:54:13;93122.47;;;12.13;62.71
11099;BME280;12223;42.650;23.364;2023-12-22T09:56:41;93132.22;;;12.22;63.23
11099;BME280;12223;42.650;23.364;2023-12-22T09:59:11;93126.75;;;12.68;60.76
11099;BME280;12223;42.650;23.364;2023-12-22T10:01:40;93120.78;;;13.01;58.19
11099;BME280;12223;42.650;23.364;2023-12-22T10:04:09;93112.06;;;12.96;57.39
11099;BME280;12223;42.650;23.364;2023-12-22T10:06:37;93102.25;;;12.91;57.96
11099;BME280;12223;42.650;23.364;2023-12-22T10:09:05;93111.28;;;12.90;58.24
11099;BME280;12223;42.650;23.364;2023-12-22T10:11:34;93100.78;;;12.75;59.65
11099;BME280;12223;42.650;23.364;2023-12-22T10:14:02;93110.97;;;13.02;59.60
11099;BME280;12223;42.650;23.364;2023-12-22T10:16:30;93110.66;;;13.08;58.96
11099;BME280;12223;42.650;23.364;2023-12-22T10:18:58;93100.56;;;13.15;58.61
11099;BME280;12223;42.650;23.364;2023-12-22T10:21:25;93093.38;;;13.21;56.93
11099;BME280;12223;42.650;23.364;2023-12-22T10:23:53;93082.47;;;13.27;57.96
11099;BME280;12223;42.650;23.364;2023-12-22T10:26:20;93077.16;;;13.27;58.92
11099;BME280;12223;42.650;23.364;2023-12-22T10:28:47;93085.88;;;13.28;57.10
11099;BME280;12223;42.650;23.364;2023-12-22T10:31:14;93090.09;;;12.90;58.28
11099;BME280;12223;42.650;23.364;2023-12-22T10:33:43;93074.19;;;12.95;57.87
11099;BME280;12223;42.650;23.364;2023-12-22T10:36:10;93066.97;;;13.01;57.61
11099;BME280;12223;42.650;23.364;2023-12-22T10:38:36;93063.75;;;13.04;58.50
11099;BME280;12223;42.650;23.364;2023-12-22T10:41:05;93076.25;;;11.80;63.73
11099;BME280;12223;42.650;23.364;2023-12-22T10:43:37;93069.94;;;12.45;63.07
11099;BME280;12223;42.650;23.364;2023-12-22T10:46:04;93050.59;;;12.94;61.97
11099;BME280;12223;42.650;23.364;2023-12-22T10:48:33;93053.84;;;12.80;62.59
11099;BME280;12223;42.650;23.364;2023-12-22T10:51:00;93038.66;;;12.96;62.09
11099;BME280;12223;42.650;23.364;2023-12-22T10:53:27;93038.03;;;13.43;60.12
11099;BME280;12223;42.650;23.364;2023-12-22T10:55:54;93028.88;;;13.59;60.29
11099;BME280;12223;42.650;23.364;2023-12-22T10:58:22;93027.59;;;14.04;61.04
11099;BME280;12223;42.650;23.364;2023-12-22T11:00:50;93028.75;;;14.22;60.43
11099;BME280;12223;42.650;23.364;2023-12-22T11:03:18;93028.84;;;14.60;59.72
11099;BME280;12223;42.650;23.364;2023-12-22T11:05:50;93031.16;;;15.04;57.06
11099;BME280;12223;42.650;23.364;2023-12-22T11:08:19;93023.09;;;14.05;56.86
11099;BME280;12223;42.650;23.364;2023-12-22T11:10:54;93030.53;;;13.21;60.73
11099;BME280;12223;42.650;23.364;2023-12-22T11:13:24;93014.59;;;13.84;58.82
11099;BME280;12223;42.650;23.364;2023-12-22T11:15:52;92979.00;;;13.85;57.63
11099;BME280;12223;42.650;23.364;2023-12-22T11:18:20;92981.66;;;14.09;58.32
11099;BME280;12223;42.650;23.364;2023-12-22T11:20:48;92980.47;;;13.73;60.45
11099;BME280;12223;42.650;23.364;2023-12-22T11:23:17;92984.16;;;14.00;60.31
11099;BME280;12223;42.650;23.364;2023-12-22T11:25:48;92985.13;;;14.28;59.06
11099;BME280;12223;42.650;23.364;2023-12-22T11:28:19;92985.81;;;13.67;61.36
11099;BME280;12223;42.650;23.364;2023-12-22T11:30:49;92994.44;;;13.83;60.53
11099;BME280;12223;42.650;23.364;2023-12-22T11:33:18;92984.66;;;13.79;61.72
11099;BME280;12223;42.650;23.364;2023-12-22T11:35:46;92991.97;;;13.63;62.90
11099;BME280;12223;42.650;23.364;2023-12-22T11:38:13;93000.47;;;13.89;62.23
11099;BME280;12223;42.650;23.364;2023-12-22T11:40:40;93022.69;;;12.18;69.66
11099;BME280;12223;42.650;23.364;2023-12-22T11:43:07;93018.91;;;11.35;75.70
11099;BME280;12223;42.650;23.364;2023-12-22T11:45:35;93032.94;;;10.79;74.57
11099;BME280;12223;42.650;23.364;2023-12-22T11:48:07;93037.59;;;11.89;75.92
11099;BME280;12223;42.650;23.364;2023-12-22T11:50:35;93039.19;;;11.90;71.91
11099;BME280;12223;42.650;23.364;2023-12-22T11:53:18;93031.81;;;12.46;72.78
11099;BME280;12223;42.650;23.364;2023-12-22T11:55:58;93031.78;;;11.87;68.70
11099;BME280;12223;42.650;23.364;2023-12-22T11:58:35;93023.94;;;11.31;69.18
11099;BME280;12223;42.650;23.364;2023-12-22T12:01:03;93014.47;;;12.15;66.79
11099;BME280;12223;42.650;23.364;2023-12-22T12:03:32;93016.28;;;12.29;62.69
11099;BME280;12223;42.650;23.364;2023-12-22T12:06:15;93024.16;;;11.80;63.79
11099;BME280;12223;42.650;23.364;2023-12-22T12:08:42;93021.19;;;12.90;58.35
11099;BME280;12223;42.650;23.364;2023-12-22T12:11:09;93019.97;;;13.74;54.60
11099;BME280;12223;42.650;23.364;2023-12-22T12:13:41;93034.28;;;13.49;54.38
11099;BME280;12223;42.650;23.364;2023-12-22T12:16:08;93031.63;;;14.02;52.08
11099;BME280;12223;42.650;23.364;2023-12-22T12:18:36;93017.44;;;14.12;50.73
11099;BME280;12223;42.650;23.364;2023-12-22T12:21:06;93029.06;;;13.92;50.21
11099;BME280;12223;42.650;23.364;2023-12-22T12:23:33;93035.13;;;13.45;50.91
11099;BME280;12223;42.650;23.364;2023-12-22T12:26:00;93024.78;;;13.14;51.65
11099;BME280;12223;42.650;23.364;2023-12-22T12:28:29;93009.38;;;13.74;50.11
11099;BME280;12223;42.650;23.364;2023-12-22T12:30:57;92994.78;;;13.77;49.91
11099;BME280;12223;42.650;23.364;2023-12-22T12:33:25;92992.69;;;13.11;51.40
11099;BME280;12223;42.650;23.364;2023-12-22T12:35:55;92992.53;;;13.02;50.75
11099;BME280;12223;42.650;23.364;2023-12-22T12:38:28;92992.41;;;13.17;50.16
11099;BME280;12223;42.650;23.364;2023-12-22T12:41:03;92987.59;;;13.77;47.88
11099;BME280;12223;42.650;23.364;2023-12-22T12:43:30;92981.03;;;13.12;49.74
11099;BME280;12223;42.650;23.364;2023-12-22T12:46:03;92975.09;;;13.54;47.42
11099;BME280;12223;42.650;23.364;2023-12-22T12:48:30;92957.72;;;13.66;47.33
11099;BME280;12223;42.650;23.364;2023-12-22T12:51:01;92960.78;;;12.58;49.80
11099;BME280;12223;42.650;23.364;2023-12-22T12:53:30;92974.47;;;13.04;49.33
11099;BME280;12223;42.650;23.364;2023-12-22T12:55:57;92986.84;;;11.82;52.53
11099;BME280;12223;42.650;23.364;2023-12-22T12:58:28;92986.72;;;12.12;51.58